Marlow, Oklahoma
Current Conditions -  °F | °C
As of 5:35 PM on Thursday 18 Dec 2014 (Local Time) from KDUC Reporting Station
Overcast Overcast  
Wind Chill: 40°   Ceiling: 700
Heat Index: 43°   Visibility: NA
Dew Point: 43°   Wind: 5mph
Humidity: 100%   Direction: 30°NNE
Pressure: 30.15"   Gusts: NA
Location:  34.65°N, 97.96°W
Report Text: KDUC 182335Z AUTO 03004KT OVC007 06/06 A3015 RMK AO2 PWINO
Loading
Personal Weather Stations






























Interactive Weather Map New forecast layout! Learn more

10-Day Weather Forecast

Advertisements
Track Severe Weather on mobile